Time;durP1;ratioP1;P1;durP2;ratioP2;P2;SDS_P1;SDS_P2;PMS_P1;PMS_P2;Temp;Humidity;BMP_temperature;BMP_pressure;BME280_temperature;BME280_humidity;BME280_pressure;Samples;Min_cycle;Max_cycle;Signal;HPM_P1;HPM_P2
2021/01/19 05:06:32;;;;;;;;;;;;;;;;;;;;;
2021/01/19 05:13:03;;;;;;;;;;;;;;;;;;;;;
2021/01/19 05:20:26;;;;;;;3.20;1.50;;;;;;;1.41;76.00;97766.34;10026699;29;20094;-82
2021/01/19 05:26:13;;;;;;;2.58;1.55;;;;;;;1.46;76.21;97759.25;9966753;24;20070;-75
2021/01/19 05:31:33;;;;;;;3.33;1.67;;;;;;;1.46;75.84;97756.50;9948888;29;20065;-76
2021/01/19 05:36:54;;;;;;;2.90;1.80;;;;;;;1.43;76.25;97770.03;9948612;29;20058;-75
2021/01/19 05:42:23;;;;;;;4.40;1.85;;;;;;;1.40;75.85;97757.34;9935377;29;20069;-75
2021/01/19 05:47:43;;;;;;;6.10;1.80;;;;;;;1.44;75.92;97766.00;9948466;29;20058;-76
2021/01/19 05:53:23;;;;;;;3.35;1.83;;;;;;;1.46;75.74;97762.00;9960426;29;20115;-76
2021/01/19 05:58:44;;;;;;;3.55;1.55;;;;;;;1.48;75.54;97748.47;9972902;29;20066;-75
2021/01/19 06:04:04;;;;;;;4.55;2.00;;;;;;;1.49;76.19;97749.94;9947760;29;20074;-75
2021/01/19 06:09:25;;;;;;;4.93;1.90;;;;;;;1.54;75.25;97746.31;9985442;29;20126;-76
2021/01/19 06:14:52;;;;;;;3.13;1.60;;;;;;;1.55;75.51;97742.31;9934907;29;20066;-75
2021/01/19 06:20:12;;;;;;;3.25;1.48;;;;;;;1.46;75.72;97746.25;9947344;29;20069;-76
2021/01/19 06:25:32;;;;;;;3.97;1.58;;;;;;;1.44;75.77;97754.25;9972015;29;20070;-75
2021/01/19 06:30:52;;;;;;;3.47;1.63;;;;;;;1.41;75.34;97739.56;9959341;29;20066;-75
2021/01/19 06:36:11;;;;;;;6.68;1.80;;;;;;;1.39;75.74;97719.38;9971821;29;20068;-76
2021/01/19 06:41:31;;;;;;;3.85;1.60;;;;;;;1.40;75.20;97715.34;9946014;29;20058;-76
2021/01/19 06:46:51;;;;;;;5.80;2.00;;;;;;;1.40;75.15;97716.09;9934305;29;20066;-76
2021/01/19 06:52:15;;;;;;;5.78;1.88;;;;;;;1.42;75.46;97705.28;9960161;29;20062;-75
2021/01/19 06:57:47;;;;;;;3.40;2.15;;;;;;;1.40;74.90;97710.59;9959599;29;20072;-76
2021/01/19 07:03:22;;;;;;;5.38;2.47;;;;;;;1.41;75.19;97716.84;9960189;29;20066;-76
2021/01/19 07:08:44;;;;;;;6.90;2.30;;;;;;;1.44;74.42;97710.25;9946553;29;20066;-75
2021/01/19 07:14:12;;;;;;;5.32;1.75;;;;;;;1.49;73.73;97703.91;9984818;29;20514;-75
2021/01/19 07:19:51;;;;;;;5.63;1.60;;;;;;;1.54;74.21;97703.03;9933410;29;20073;-75
2021/01/19 07:25:11;;;;;;;4.90;1.70;;;;;;;1.58;73.57;97697.22;9947681;29;20070;-76
2021/01/19 07:30:31;;;;;;;4.40;1.85;;;;;;;1.59;73.40;97704.94;9946175;29;20062;-76
2021/01/19 07:35:51;;;;;;;3.92;1.70;;;;;;;1.71;73.09;97694.41;9932692;29;20062;-75
2021/01/19 07:41:10;;;;;;;5.72;1.67;;;;;;;1.77;72.92;97719.78;9932312;29;20119;-76
2021/01/19 07:46:30;;;;;;;6.93;1.80;;;;;;;1.78;72.67;97709.50;9932888;29;20137;-76
2021/01/19 07:51:50;;;;;;;6.25;2.10;;;;;;;1.94;72.03;97711.88;9986907;29;20062;-76
2021/01/19 07:57:15;;;;;;;3.38;1.67;;;;;;;2.12;72.45;97698.41;9977077;29;20095;-76
2021/01/19 08:02:34;;;;;;;3.97;1.88;;;;;;;2.35;71.39;97684.81;9964694;29;20533;-76
2021/01/19 08:07:56;;;;;;;4.30;1.35;;;;;;;2.51;70.92;97694.66;9964055;29;20391;-76
2021/01/19 08:13:17;;;;;;;5.05;2.08;;;;;;;2.66;72.19;97694.03;9952062;29;20513;-76
2021/01/19 08:18:41;;;;;;;6.25;2.10;;;;;;;2.74;70.33;97683.78;9963661;29;20066;-75
2021/01/19 08:24:26;;;;;;;7.22;2.22;;;;;;;2.81;69.99;97677.56;9951906;29;20062;-76
2021/01/19 08:29:46;;;;;;;4.72;1.80;;;;;;;3.21;70.80;97661.38;9975718;29;20055;-76
2021/01/19 08:35:07;;;;;;;4.32;1.58;;;;;;;3.36;68.33;97638.59;9972108;29;20089;-76
2021/01/19 08:40:32;;;;;;;3.95;1.80;;;;;;;3.30;68.19;97640.78;9984468;29;20066;-76
2021/01/19 08:45:51;;;;;;;3.20;1.60;;;;;;;3.47;68.34;97624.44;9960019;29;20444;-76
2021/01/19 08:51:23;;;;;;;5.32;1.65;;;;;;;3.41;66.36;97621.13;9971444;29;20138;-76
2021/01/19 08:56:45;;;;;;;6.13;1.80;;;;;;;3.35;65.85;97612.28;9971379;29;20069;-74
2021/01/19 09:02:05;;;;;;;2.95;1.60;;;;;;;3.60;66.06;97620.78;9961786;29;20541;-73
2021/01/19 09:07:28;;;;;;;3.42;1.58;;;;;;;3.96;64.24;97624.13;9960982;29;20119;-74
2021/01/19 09:12:48;;;;;;;5.35;1.63;;;;;;;4.08;64.54;97610.66;9949413;29;20058;-74
2021/01/19 09:18:14;;;;;;;4.72;1.63;;;;;;;3.96;62.63;97606.81;9983142;29;20471;-76
2021/01/19 09:23:36;;;;;;;2.90;1.50;;;;;;;4.13;62.69;97612.50;10024695;29;20070;-78
2021/01/19 09:29:05;;;;;;;4.72;1.55;;;;;;;4.17;63.54;97599.06;10037183;29;20122;-80
2021/01/19 09:34:34;;;;;;;3.88;1.52;;;;;;;4.45;62.35;97592.53;10024843;29;20383;-77
2021/01/19 09:39:53;;;;;;;3.58;1.50;;;;;;;4.41;63.51;97574.84;9996100;29;20062;-76
2021/01/19 09:45:13;;;;;;;3.13;1.50;;;;;;;4.25;62.20;97574.19;9987127;29;20127;-75
2021/01/19 09:50:33;;;;;;;4.18;1.42;;;;;;;3.82;61.02;97575.88;9974110;29;20066;-77
2021/01/19 09:55:54;;;;;;;4.43;1.52;;;;;;;3.44;64.37;97540.00;9961852;29;20078;-75
2021/01/19 10:01:23;;;;;;;4.45;1.48;;;;;;;3.55;62.45;97536.13;9971900;29;20506;-76
2021/01/19 10:06:43;;;;;;;3.83;1.55;;;;;;;3.52;60.92;97524.19;9960942;29;20066;-77
2021/01/19 10:12:16;;;;;;;4.45;1.45;;;;;;;3.61;62.56;97515.34;10221020;24;20062;-78
2021/01/19 10:17:36;;;;;;;3.63;1.60;;;;;;;3.84;61.44;97489.72;9910660;30;20200;-79
2021/01/19 10:22:57;;;;;;;3.53;1.30;;;;;;;4.00;62.16;97496.69;9885891;30;20063;-79
2021/01/19 10:28:17;;;;;;;5.15;1.70;;;;;;;4.01;61.83;97490.59;9910144;30;20067;-79
2021/01/19 10:33:36;;;;;;;4.28;1.67;;;;;;;4.22;59.08;97476.53;9899297;30;20073;-78
2021/01/19 10:39:07;;;;;;;3.55;1.50;;;;;;;4.18;59.03;97447.84;9909622;30;20095;-77
2021/01/19 10:44:27;;;;;;;6.38;1.85;;;;;;;4.22;57.48;97468.25;9910638;30;20550;-77
2021/01/19 10:49:55;;;;;;;4.95;1.50;;;;;;;4.52;57.93;97436.25;9917170;30;20075;-75
2021/01/19 10:55:18;;;;;;;5.45;2.10;;;;;;;4.60;58.44;97428.63;9909827;30;20059;-78
2021/01/19 11:00:38;;;;;;;4.70;1.73;;;;;;;4.44;58.88;97399.63;9910870;30;20065;-80
2021/01/19 11:05:58;;;;;;;5.10;1.80;;;;;;;4.43;59.05;97398.88;9913386;30;20067;-79
2021/01/19 11:11:18;;;;;;;4.10;1.98;;;;;;;4.59;57.75;97405.06;9915620;30;20070;-78
2021/01/19 11:16:39;;;;;;;5.47;2.03;;;;;;;4.68;58.08;97385.09;9908842;29;20063;-78
2021/01/19 11:41:35;;;;;;;5.40;2.33;;;;;;;5.14;56.43;97376.44;11222184;24;20089;-81
2021/01/19 11:46:55;;;;;;;5.93;2.25;;;;;;;5.04;56.30;97354.22;9973890;29;20070;-78
2021/01/19 12:59:09;;;;;;;7.05;2.78;;;;;;;3.17;57.94;97205.88;8018847;27;20054;-83
2021/01/19 13:05:04;;;;;;;5.03;1.90;;;;;;;3.11;58.28;97186.06;9900190;30;20068;-81
2021/01/19 13:10:40;;;;;;;5.18;2.20;;;;;;;3.12;57.99;97182.72;9899084;30;20147;-81
2021/01/19 13:16:05;;;;;;;5.18;2.00;;;;;;;3.10;58.38;97168.78;9896023;30;20056;-80
2021/01/19 13:21:34;;;;;;;5.68;2.38;;;;;;;3.02;59.10;97176.34;9899348;30;20068;-81
2021/01/19 13:26:57;;;;;;;4.88;2.30;;;;;;;3.04;58.31;97148.94;9872151;30;20063;-81
2021/01/19 13:32:28;;;;;;;5.82;2.20;;;;;;;3.08;58.73;97137.50;9884509;30;20068;-82
2021/01/19 13:37:56;;;;;;;6.22;2.03;;;;;;;3.05;58.46;97131.09;9898722;30;20098;-81
2021/01/19 13:43:18;;;;;;;4.60;2.55;;;;;;;3.09;58.86;97133.50;9897171;30;20062;-81
2021/01/19 14:33:31;;;;;;;5.82;2.58;;;;;;;2.13;63.67;97030.78;7805595;27;20060;-81
2021/01/19 14:39:12;;;;;;;5.10;2.78;;;;;;;2.09;64.53;97022.91;9928294;30;20059;-81
2021/01/19 14:44:46;;;;;;;6.38;3.10;;;;;;;1.98;66.40;97017.78;9938238;30;20070;-81
2021/01/19 14:50:52;;;;;;;7.60;2.67;;;;;;;1.66;70.56;97040.41;9869704;30;20064;-80
2021/01/19 15:08:59;;;;;;;6.35;3.55;;;;;;;1.04;75.21;97014.19;10933126;24;20055;-82
2021/01/19 15:15:38;;;;;;;7.80;4.63;;;;;;;0.73;78.10;97027.88;9837458;30;20135;-81
2021/01/19 15:21:27;;;;;;;7.32;4.78;;;;;;;0.66;78.16;97025.81;9822081;30;20056;-82
2021/01/19 15:27:07;;;;;;;6.25;4.22;;;;;;;0.57;78.44;97029.09;9823756;30;20065;-81
2021/01/19 15:32:55;;;;;;;6.63;4.65;;;;;;;0.62;79.34;97041.94;9804853;30;20067;-82
2021/01/19 15:57:29;;;;;;;6.57;4.35;;;;;;;0.61;79.11;97029.50;9868624;30;19930;-76
2021/01/19 16:02:50;;;;;;;7.07;4.65;;;;;;;0.58;79.56;97025.09;9870813;30;20079;-76
2021/01/19 16:08:10;;;;;;;5.05;4.35;;;;;;;0.66;78.89;97036.81;9870492;30;20097;-76
2021/01/19 16:13:30;;;;;;;9.52;4.70;;;;;;;0.68;79.46;97026.03;9873287;30;20059;-77
2021/01/19 16:18:50;;;;;;;6.15;4.53;;;;;;;0.71;79.13;97016.69;9877918;30;20068;-76
2021/01/19 16:24:10;;;;;;;7.88;4.72;;;;;;;0.77;79.08;97017.28;9877888;30;20121;-75
2021/01/19 16:29:39;;;;;;;7.60;4.28;;;;;;;0.78;78.91;97007.75;9880246;30;20071;-80
2021/01/19 16:34:59;;;;;;;5.80;4.63;;;;;;;0.76;79.04;97004.06;10400209;24;20131;-78
2021/01/19 16:40:19;;;;;;;7.00;4.35;;;;;;;0.82;79.02;96993.63;9915122;29;20128;-78
2021/01/19 16:45:43;;;;;;;5.97;4.75;;;;;;;0.79;79.30;96998.22;9951090;29;20069;-78
2021/01/19 16:51:03;;;;;;;5.95;4.18;;;;;;;0.86;78.95;96994.00;9995789;24;20074;-79
2021/01/19 16:56:23;;;;;;;5.55;4.03;;;;;;;0.90;78.74;96999.16;9882991;30;20150;-79
2021/01/19 17:01:43;;;;;;;6.03;4.30;;;;;;;0.96;78.50;97002.44;9921543;29;20060;-81
2021/01/19 17:07:09;;;;;;;4.65;3.75;;;;;;;0.98;78.72;96991.66;9922993;30;20132;-80
2021/01/19 17:13:16;;;;;;;6.05;3.75;;;;;;;1.04;77.96;97003.19;10273726;24;20072;-83
2021/01/19 17:27:21;;;;;;;4.13;3.10;;;;;;;1.20;77.63;96993.69;10624799;24;20082;-83
2021/01/19 17:33:53;;;;;;;4.18;2.63;;;;;;;1.21;77.80;96980.66;11754654;24;20029;31
2021/01/19 17:39:48;;;;;;;3.85;2.85;;;;;;;1.17;77.63;96972.78;11141403;24;20061;-80
2021/01/19 17:45:12;;;;;;;3.50;2.92;;;;;;;1.23;77.34;96986.34;9957643;29;20074;-79
2021/01/19 17:50:31;;;;;;;5.10;3.15;;;;;;;1.24;77.43;96977.53;9958685;29;20509;-80
2021/01/19 17:55:52;;;;;;;2.90;2.45;;;;;;;1.28;77.28;96977.19;9955514;29;20098;-77
2021/01/19 18:01:11;;;;;;;3.13;2.58;;;;;;;1.32;77.13;96988.53;9955343;29;20070;-78
2021/01/19 18:06:33;;;;;;;3.97;2.22;;;;;;;1.36;77.27;96995.16;9926710;29;20507;-76
2021/01/19 18:11:53;;;;;;;5.15;3.33;;;;;;;1.34;77.75;96992.19;9934037;29;20114;-78
2021/01/19 18:17:13;;;;;;;4.03;2.50;;;;;;;1.37;77.43;96993.84;9923531;29;20589;-76
2021/01/19 18:22:32;;;;;;;2.90;2.47;;;;;;;1.42;77.84;96989.44;9933713;29;20074;-76
2021/01/19 18:27:52;;;;;;;2.85;2.20;;;;;;;1.47;77.46;96988.53;9933533;29;20062;-76
2021/01/19 18:33:12;;;;;;;3.42;2.45;;;;;;;1.53;77.08;97002.09;9946243;29;20141;-74
2021/01/19 18:38:32;;;;;;;2.92;2.17;;;;;;;1.58;77.07;97007.41;9946658;29;20539;-74
2021/01/19 18:43:52;;;;;;;3.20;2.47;;;;;;;1.61;77.53;97000.06;9946156;29;20065;-75
2021/01/19 18:49:15;;;;;;;2.72;2.35;;;;;;;1.63;76.93;97008.50;9946366;29;20067;-74
2021/01/19 18:54:35;;;;;;;2.90;2.20;;;;;;;1.68;77.57;97002.81;9946179;29;20067;-76
2021/01/19 18:59:55;;;;;;;2.28;1.90;;;;;;;1.79;77.10;97000.97;9920034;29;20063;-76
2021/01/19 19:05:17;;;;;;;2.65;2.00;;;;;;;1.77;77.60;96987.03;9932805;29;20441;-75
2021/01/19 19:10:37;;;;;;;2.20;1.88;;;;;;;1.77;77.58;97003.53;9944652;29;20454;-75
2021/01/19 19:15:57;;;;;;;2.38;1.75;;;;;;;1.70;78.25;97008.50;9931987;29;20066;-75
2021/01/19 19:21:18;;;;;;;2.42;2.05;;;;;;;1.71;78.75;96990.69;9945481;29;20065;-76
2021/01/19 19:26:39;;;;;;;3.45;2.28;;;;;;;1.69;78.65;96998.03;9945595;29;20071;-77
2021/01/19 19:31:59;;;;;;;2.75;2.05;;;;;;;1.66;78.47;96999.88;9932993;29;20059;-78
2021/01/19 19:37:21;;;;;;;3.35;2.25;;;;;;;1.68;79.07;96991.06;9945374;29;20067;-77
2021/01/19 19:42:40;;;;;;;2.33;2.03;;;;;;;1.72;78.83;96969.41;9907384;29;20071;-77
2021/01/19 19:48:00;;;;;;;2.30;1.70;;;;;;;1.75;79.24;96984.09;9950297;29;20510;-77
2021/01/19 19:53:20;;;;;;;2.13;1.77;;;;;;;1.73;79.19;97001.13;9953061;29;20070;-78
2021/01/19 19:58:40;;;;;;;2.92;2.03;;;;;;;1.67;79.72;96992.34;9984900;29;20094;-79
2021/01/19 20:04:01;;;;;;;2.90;2.10;;;;;;;1.66;80.50;96988.16;9968281;29;20095;-79
2021/01/19 20:48:24;;;;;;;3.90;2.40;;;;;;;1.87;80.76;97018.91;10426667;24;20128;-79
2021/01/19 20:53:50;;;;;;;2.70;2.10;;;;;;;1.85;81.22;97021.50;10372657;24;20068;31
2021/01/19 21:11:47;;;;;;;3.55;2.20;;;;;;;2.08;81.26;97026.22;9894610;30;20044;-79
2021/01/19 21:17:07;;;;;;;3.83;1.73;;;;;;;2.13;81.33;97017.75;9834807;30;20067;-81
2021/01/19 21:22:57;;;;;;;3.13;2.40;;;;;;;2.16;80.57;97026.94;10001586;24;20094;-78
2021/01/19 21:28:17;;;;;;;3.28;2.53;;;;;;;2.15;80.65;97025.47;9827812;30;20064;-80
2021/01/19 21:33:40;;;;;;;3.45;2.42;;;;;;;2.13;81.57;97044.56;10044832;24;20051;-74
2021/01/19 21:39:01;;;;;;;3.90;2.42;;;;;;;2.07;81.08;97025.47;9886495;30;20204;-75
2021/01/19 21:44:20;;;;;;;5.78;2.55;;;;;;;2.03;81.76;97025.13;9912293;30;20067;-75
2021/01/19 21:49:43;;;;;;;3.05;2.00;;;;;;;2.12;81.58;97034.81;9913372;30;20138;-75
2021/01/19 21:55:08;;;;;;;3.95;2.67;;;;;;;2.21;80.90;97042.50;9913294;30;20059;-75
2021/01/19 22:00:28;;;;;;;2.80;2.17;;;;;;;2.28;80.86;97052.75;9912584;30;20138;-75
2021/01/19 22:05:48;;;;;;;3.08;2.15;;;;;;;2.28;81.04;97061.03;9898074;30;20074;-75
2021/01/19 22:11:08;;;;;;;4.13;2.22;;;;;;;2.35;81.20;97065.78;9910383;29;20063;-75
2021/01/19 22:16:28;;;;;;;2.58;2.15;;;;;;;2.43;81.06;97061.00;9911589;30;20063;-75
2021/01/19 22:21:48;;;;;;;2.60;1.98;;;;;;;2.51;80.61;97058.94;9898154;30;20055;-75
2021/01/19 22:27:08;;;;;;;3.88;2.35;;;;;;;2.54;80.27;97071.59;9911135;30;20066;-75
2021/01/19 22:32:28;;;;;;;3.17;2.22;;;;;;;2.65;80.06;97091.78;9897199;30;20146;-75
2021/01/19 22:37:48;;;;;;;2.45;1.98;;;;;;;2.64;80.47;97095.81;9911031;30;20070;-75
2021/01/19 22:43:08;;;;;;;3.13;2.05;;;;;;;2.60;80.69;97098.94;9897373;30;20135;-75
2021/01/19 22:48:28;;;;;;;2.80;1.60;;;;;;;2.66;80.56;97098.75;9910377;30;20455;-75
2021/01/19 22:53:47;;;;;;;2.25;1.40;;;;;;;2.81;80.32;97104.94;9884107;30;20047;-75
2021/01/19 22:59:07;;;;;;;2.58;1.65;;;;;;;2.94;80.48;97084.66;9910016;30;20071;-75
2021/01/19 23:04:28;;;;;;;2.45;1.60;;;;;;;2.89;79.78;97085.59;9871393;30;20104;-75
2021/01/19 23:09:48;;;;;;;2.08;1.70;;;;;;;2.88;80.21;97075.84;9910564;30;20064;-75
2021/01/19 23:15:08;;;;;;;2.85;1.70;;;;;;;2.87;80.16;97088.16;9896262;30;20423;-75
2021/01/19 23:20:28;;;;;;;2.30;1.95;;;;;;;2.89;80.23;97107.63;9910110;30;20070;-75
2021/01/19 23:25:50;;;;;;;2.72;2.05;;;;;;;3.00;80.84;97087.94;9897063;30;20480;-75
2021/01/19 23:31:10;;;;;;;2.30;1.67;;;;;;;3.00;80.34;97101.72;9895597;30;20065;-75
2021/01/19 23:36:30;;;;;;;2.15;1.33;;;;;;;3.15;80.19;97114.69;9910379;30;20063;-75
2021/01/19 23:41:50;;;;;;;2.58;1.38;;;;;;;3.30;80.51;97116.63;9895663;30;20063;-75
2021/01/19 23:47:09;;;;;;;2.13;1.42;;;;;;;3.39;79.58;97113.28;9883013;30;20074;-75
2021/01/19 23:52:29;;;;;;;2.20;1.30;;;;;;;3.52;80.05;97129.56;9895319;30;20074;-75
2021/01/19 23:57:49;;;;;;;2.03;1.30;;;;;;;3.58;79.51;97119.03;9883558;30;20453;-75
